sensor_id;sensor_type;location;lat;lon;timestamp;temperature;humidity
80958;DHT22;70419;42.700;23.316;2023-08-12T00:00:49;18.30;56.20
80958;DHT22;70419;42.700;23.316;2023-08-12T00:03:15;18.30;56.30
80958;DHT22;70419;42.700;23.316;2023-08-12T00:05:41;18.20;56.50
80958;DHT22;70419;42.700;23.316;2023-08-12T00:08:08;18.20;56.50
80958;DHT22;70419;42.700;23.316;2023-08-12T00:10:33;18.10;56.60
80958;DHT22;70419;42.700;23.316;2023-08-12T00:12:59;18.20;56.40
80958;DHT22;70419;42.700;23.316;2023-08-12T00:15:25;18.10;56.30
80958;DHT22;70419;42.700;23.316;2023-08-12T00:17:50;18.20;56.20
80958;DHT22;70419;42.700;23.316;2023-08-12T00:20:16;18.20;55.80
80958;DHT22;70419;42.700;23.316;2023-08-12T00:22:41;18.20;55.80
80958;DHT22;70419;42.700;23.316;2023-08-12T00:25:07;18.10;55.60
80958;DHT22;70419;42.700;23.316;2023-08-12T00:27:33;18.20;55.60
80958;DHT22;70419;42.700;23.316;2023-08-12T00:29:58;18.10;55.50
80958;DHT22;70419;42.700;23.316;2023-08-12T00:32:24;18.10;55.60
80958;DHT22;70419;42.700;23.316;2023-08-12T00:34:50;18.20;55.50
80958;DHT22;70419;42.700;23.316;2023-08-12T00:37:15;18.10;55.80
80958;DHT22;70419;42.700;23.316;2023-08-12T00:39:41;18.10;55.80
80958;DHT22;70419;42.700;23.316;2023-08-12T00:42:07;18.00;55.90
80958;DHT22;70419;42.700;23.316;2023-08-12T00:44:32;18.00;56.00
80958;DHT22;70419;42.700;23.316;2023-08-12T00:46:58;18.00;56.20
80958;DHT22;70419;42.700;23.316;2023-08-12T00:49:23;18.00;56.20
80958;DHT22;70419;42.700;23.316;2023-08-12T00:51:50;18.00;56.30
80958;DHT22;70419;42.700;23.316;2023-08-12T00:54:16;17.90;56.20
80958;DHT22;70419;42.700;23.316;2023-08-12T00:56:42;17.90;56.30
80958;DHT22;70419;42.700;23.316;2023-08-12T00:59:08;18.00;56.30
80958;DHT22;70419;42.700;23.316;2023-08-12T01:01:34;17.90;56.10
80958;DHT22;70419;42.700;23.316;2023-08-12T01:04:00;17.90;56.20
80958;DHT22;70419;42.700;23.316;2023-08-12T01:06:26;17.90;56.00
80958;DHT22;70419;42.700;23.316;2023-08-12T01:08:52;17.90;56.10
80958;DHT22;70419;42.700;23.316;2023-08-12T01:11:24;17.80;56.30
80958;DHT22;70419;42.700;23.316;2023-08-12T01:14:25;17.70;56.40
80958;DHT22;70419;42.700;23.316;2023-08-12T01:16:44;17.70;56.50
80958;DHT22;70419;42.700;23.316;2023-08-12T01:19:11;17.70;56.50
80958;DHT22;70419;42.700;23.316;2023-08-12T01:21:41;17.70;56.30
80958;DHT22;70419;42.700;23.316;2023-08-12T01:24:09;17.70;56.30
80958;DHT22;70419;42.700;23.316;2023-08-12T01:26:34;17.70;56.30
80958;DHT22;70419;42.700;23.316;2023-08-12T01:29:00;17.70;56.20
80958;DHT22;70419;42.700;23.316;2023-08-12T01:31:31;17.80;57.40
80958;DHT22;70419;42.700;23.316;2023-08-12T01:34:07;17.70;56.20
80958;DHT22;70419;42.700;23.316;2023-08-12T01:36:35;17.70;56.20
80958;DHT22;70419;42.700;23.316;2023-08-12T01:39:01;17.60;57.40
80958;DHT22;70419;42.700;23.316;2023-08-12T01:41:27;17.60;56.50
80958;DHT22;70419;42.700;23.316;2023-08-12T01:43:53;17.60;56.60
80958;DHT22;70419;42.700;23.316;2023-08-12T01:46:18;17.60;56.70
80958;DHT22;70419;42.700;23.316;2023-08-12T01:48:44;17.50;56.70
80958;DHT22;70419;42.700;23.316;2023-08-12T01:51:09;17.50;57.10
80958;DHT22;70419;42.700;23.316;2023-08-12T01:53:35;17.50;57.00
80958;DHT22;70419;42.700;23.316;2023-08-12T01:56:00;17.50;57.20
80958;DHT22;70419;42.700;23.316;2023-08-12T01:58:26;17.50;57.10
80958;DHT22;70419;42.700;23.316;2023-08-12T02:00:52;17.50;57.00
80958;DHT22;70419;42.700;23.316;2023-08-12T02:03:18;17.50;56.90
80958;DHT22;70419;42.700;23.316;2023-08-12T02:05:43;17.50;56.90
80958;DHT22;70419;42.700;23.316;2023-08-12T02:08:09;17.50;57.00
80958;DHT22;70419;42.700;23.316;2023-08-12T02:10:34;17.50;56.90
80958;DHT22;70419;42.700;23.316;2023-08-12T02:13:00;17.50;57.00
80958;DHT22;70419;42.700;23.316;2023-08-12T02:15:26;17.50;58.10
80958;DHT22;70419;42.700;23.316;2023-08-12T02:17:52;17.40;56.90
80958;DHT22;70419;42.700;23.316;2023-08-12T02:20:18;17.40;56.90
80958;DHT22;70419;42.700;23.316;2023-08-12T02:22:43;17.40;56.90
80958;DHT22;70419;42.700;23.316;2023-08-12T02:25:09;17.40;57.00
80958;DHT22;70419;42.700;23.316;2023-08-12T02:27:34;17.30;57.10
80958;DHT22;70419;42.700;23.316;2023-08-12T02:30:00;17.30;57.20
80958;DHT22;70419;42.700;23.316;2023-08-12T02:32:26;17.30;57.40
80958;DHT22;70419;42.700;23.316;2023-08-12T02:34:51;17.30;57.60
80958;DHT22;70419;42.700;23.316;2023-08-12T02:37:17;17.20;57.50
80958;DHT22;70419;42.700;23.316;2023-08-12T02:39:42;17.20;57.50
80958;DHT22;70419;42.700;23.316;2023-08-12T02:42:08;17.20;57.60
80958;DHT22;70419;42.700;23.316;2023-08-12T02:44:33;17.20;57.60
80958;DHT22;70419;42.700;23.316;2023-08-12T02:46:59;17.20;57.50
80958;DHT22;70419;42.700;23.316;2023-08-12T02:49:24;17.20;57.60
80958;DHT22;70419;42.700;23.316;2023-08-12T02:51:50;17.10;57.50
80958;DHT22;70419;42.700;23.316;2023-08-12T02:54:15;17.20;57.60
80958;DHT22;70419;42.700;23.316;2023-08-12T02:56:41;17.10;57.60
80958;DHT22;70419;42.700;23.316;2023-08-12T02:59:07;17.10;57.90
80958;DHT22;70419;42.700;23.316;2023-08-12T03:01:32;17.10;58.10
80958;DHT22;70419;42.700;23.316;2023-08-12T03:03:58;17.20;58.10
80958;DHT22;70419;42.700;23.316;2023-08-12T03:06:23;17.10;57.70
80958;DHT22;70419;42.700;23.316;2023-08-12T03:08:49;17.10;58.10
80958;DHT22;70419;42.700;23.316;2023-08-12T03:11:14;17.00;58.00
80958;DHT22;70419;42.700;23.316;2023-08-12T03:13:41;17.00;58.10
80958;DHT22;70419;42.700;23.316;2023-08-12T03:16:10;17.00;58.20
80958;DHT22;70419;42.700;23.316;2023-08-12T03:18:36;17.00;58.20
80958;DHT22;70419;42.700;23.316;2023-08-12T03:21:05;17.00;58.10
80958;DHT22;70419;42.700;23.316;2023-08-12T03:23:30;17.00;58.10
80958;DHT22;70419;42.700;23.316;2023-08-12T03:25:56;17.00;58.20
80958;DHT22;70419;42.700;23.316;2023-08-12T03:28:21;17.00;58.10
80958;DHT22;70419;42.700;23.316;2023-08-12T03:30:50;17.10;58.20
80958;DHT22;70419;42.700;23.316;2023-08-12T03:33:17;17.00;58.10
80958;DHT22;70419;42.700;23.316;2023-08-12T03:35:44;17.00;57.90
80958;DHT22;70419;42.700;23.316;2023-08-12T03:38:10;17.00;58.00
80958;DHT22;70419;42.700;23.316;2023-08-12T03:40:37;17.00;57.90
80958;DHT22;70419;42.700;23.316;2023-08-12T03:43:03;17.00;57.80
80958;DHT22;70419;42.700;23.316;2023-08-12T03:45:28;17.00;57.60
80958;DHT22;70419;42.700;23.316;2023-08-12T03:47:54;17.10;57.70
80958;DHT22;70419;42.700;23.316;2023-08-12T03:50:19;17.10;57.60
80958;DHT22;70419;42.700;23.316;2023-08-12T03:52:45;17.10;57.40
80958;DHT22;70419;42.700;23.316;2023-08-12T03:55:11;17.10;57.40
80958;DHT22;70419;42.700;23.316;2023-08-12T03:57:36;17.20;57.50
80958;DHT22;70419;42.700;23.316;2023-08-12T04:00:02;17.20;57.60
80958;DHT22;70419;42.700;23.316;2023-08-12T04:02:28;17.30;57.50
80958;DHT22;70419;42.700;23.316;2023-08-12T04:04:53;17.30;57.60
80958;DHT22;70419;42.700;23.316;2023-08-12T04:07:19;17.40;58.00
80958;DHT22;70419;42.700;23.316;2023-08-12T04:09:45;17.50;58.20
80958;DHT22;70419;42.700;23.316;2023-08-12T04:12:10;17.50;58.20
80958;DHT22;70419;42.700;23.316;2023-08-12T04:14:36;17.50;58.10
80958;DHT22;70419;42.700;23.316;2023-08-12T04:17:01;17.60;57.90
80958;DHT22;70419;42.700;23.316;2023-08-12T04:19:27;17.60;57.90
80958;DHT22;70419;42.700;23.316;2023-08-12T04:21:53;17.70;57.70
80958;DHT22;70419;42.700;23.316;2023-08-12T04:24:18;17.70;57.30
80958;DHT22;70419;42.700;23.316;2023-08-12T04:26:44;17.80;57.40
80958;DHT22;70419;42.700;23.316;2023-08-12T04:29:09;17.80;57.20
80958;DHT22;70419;42.700;23.316;2023-08-12T04:31:35;17.90;57.00
80958;DHT22;70419;42.700;23.316;2023-08-12T04:34:00;17.90;56.70
80958;DHT22;70419;42.700;23.316;2023-08-12T04:36:26;18.00;56.30
80958;DHT22;70419;42.700;23.316;2023-08-12T04:38:52;18.20;55.80
80958;DHT22;70419;42.700;23.316;2023-08-12T04:41:18;18.20;55.50
80958;DHT22;70419;42.700;23.316;2023-08-12T04:43:44;18.30;55.30
80958;DHT22;70419;42.700;23.316;2023-08-12T04:46:09;18.30;55.00
80958;DHT22;70419;42.700;23.316;2023-08-12T04:48:35;18.40;54.70
80958;DHT22;70419;42.700;23.316;2023-08-12T04:51:00;18.50;54.60
80958;DHT22;70419;42.700;23.316;2023-08-12T04:53:28;18.50;54.50
80958;DHT22;70419;42.700;23.316;2023-08-12T04:55:55;18.50;54.30
80958;DHT22;70419;42.700;23.316;2023-08-12T04:58:21;18.60;53.90
80958;DHT22;70419;42.700;23.316;2023-08-12T05:00:46;18.70;53.90
80958;DHT22;70419;42.700;23.316;2023-08-12T05:03:12;18.70;53.50
80958;DHT22;70419;42.700;23.316;2023-08-12T05:05:37;18.90;53.50
80958;DHT22;70419;42.700;23.316;2023-08-12T05:08:03;18.90;53.30
80958;DHT22;70419;42.700;23.316;2023-08-12T05:10:29;19.00;52.80
80958;DHT22;70419;42.700;23.316;2023-08-12T05:12:56;19.10;52.40
80958;DHT22;70419;42.700;23.316;2023-08-12T05:15:22;19.30;52.20
80958;DHT22;70419;42.700;23.316;2023-08-12T05:17:48;19.40;51.90
80958;DHT22;70419;42.700;23.316;2023-08-12T05:20:13;19.50;51.40
80958;DHT22;70419;42.700;23.316;2023-08-12T05:22:39;19.70;51.00
80958;DHT22;70419;42.700;23.316;2023-08-12T05:25:05;20.00;50.60
80958;DHT22;70419;42.700;23.316;2023-08-12T05:27:30;20.20;50.00
80958;DHT22;70419;42.700;23.316;2023-08-12T05:29:56;20.40;49.50
80958;DHT22;70419;42.700;23.316;2023-08-12T05:32:21;20.50;48.90
80958;DHT22;70419;42.700;23.316;2023-08-12T05:34:49;20.70;48.30
80958;DHT22;70419;42.700;23.316;2023-08-12T05:37:15;20.80;48.30
80958;DHT22;70419;42.700;23.316;2023-08-12T05:39:40;20.80;47.90
80958;DHT22;70419;42.700;23.316;2023-08-12T05:42:06;21.00;47.90
80958;DHT22;70419;42.700;23.316;2023-08-12T05:44:33;20.90;47.60
80958;DHT22;70419;42.700;23.316;2023-08-12T05:47:00;20.90;47.60
80958;DHT22;70419;42.700;23.316;2023-08-12T05:49:26;21.00;47.40
80958;DHT22;70419;42.700;23.316;2023-08-12T05:51:51;21.00;47.20
80958;DHT22;70419;42.700;23.316;2023-08-12T05:54:17;21.10;47.30
80958;DHT22;70419;42.700;23.316;2023-08-12T05:56:42;21.20;47.20
80958;DHT22;70419;42.700;23.316;2023-08-12T05:59:08;21.20;46.80
80958;DHT22;70419;42.700;23.316;2023-08-12T06:01:34;21.20;46.60
80958;DHT22;70419;42.700;23.316;2023-08-12T06:03:59;21.20;46.60
80958;DHT22;70419;42.700;23.316;2023-08-12T06:06:25;21.30;46.80
80958;DHT22;70419;42.700;23.316;2023-08-12T06:08:51;21.30;46.90
80958;DHT22;70419;42.700;23.316;2023-08-12T06:11:18;21.40;46.60
80958;DHT22;70419;42.700;23.316;2023-08-12T06:13:44;21.30;46.30
80958;DHT22;70419;42.700;23.316;2023-08-12T06:16:09;21.40;46.10
80958;DHT22;70419;42.700;23.316;2023-08-12T06:18:35;21.50;46.20
80958;DHT22;70419;42.700;23.316;2023-08-12T06:21:00;21.60;45.90
80958;DHT22;70419;42.700;23.316;2023-08-12T06:23:26;21.60;45.40
80958;DHT22;70419;42.700;23.316;2023-08-12T06:25:52;21.60;45.40
80958;DHT22;70419;42.700;23.316;2023-08-12T06:28:17;21.60;45.50
80958;DHT22;70419;42.700;23.316;2023-08-12T06:30:46;21.70;45.60
80958;DHT22;70419;42.700;23.316;2023-08-12T06:33:13;21.80;45.60
80958;DHT22;70419;42.700;23.316;2023-08-12T06:35:39;21.90;45.30
80958;DHT22;70419;42.700;23.316;2023-08-12T06:38:05;22.00;45.10
80958;DHT22;70419;42.700;23.316;2023-08-12T06:40:30;22.00;44.90
80958;DHT22;70419;42.700;23.316;2023-08-12T06:42:56;22.10;44.90
80958;DHT22;70419;42.700;23.316;2023-08-12T06:45:22;22.20;44.70
80958;DHT22;70419;42.700;23.316;2023-08-12T06:47:47;22.30;44.60
80958;DHT22;70419;42.700;23.316;2023-08-12T06:50:13;22.30;44.40
80958;DHT22;70419;42.700;23.316;2023-08-12T06:52:38;22.40;44.30
80958;DHT22;70419;42.700;23.316;2023-08-12T06:55:04;22.50;44.10
80958;DHT22;70419;42.700;23.316;2023-08-12T06:57:30;22.70;43.70
80958;DHT22;70419;42.700;23.316;2023-08-12T06:59:57;22.80;43.30
80958;DHT22;70419;42.700;23.316;2023-08-12T07:02:22;22.90;42.70
80958;DHT22;70419;42.700;23.316;2023-08-12T07:04:48;23.00;42.70
80958;DHT22;70419;42.700;23.316;2023-08-12T07:07:14;23.20;42.10
80958;DHT22;70419;42.700;23.316;2023-08-12T07:09:40;23.30;41.30
80958;DHT22;70419;42.700;23.316;2023-08-12T07:12:06;23.40;41.40
80958;DHT22;70419;42.700;23.316;2023-08-12T07:14:31;23.50;41.70
80958;DHT22;70419;42.700;23.316;2023-08-12T07:16:57;23.60;40.70
80958;DHT22;70419;42.700;23.316;2023-08-12T07:19:23;23.60;40.80
80958;DHT22;70419;42.700;23.316;2023-08-12T07:21:48;23.80;40.60
80958;DHT22;70419;42.700;23.316;2023-08-12T07:24:14;23.90;39.80
80958;DHT22;70419;42.700;23.316;2023-08-12T07:26:40;24.00;39.30
80958;DHT22;70419;42.700;23.316;2023-08-12T07:29:06;24.20;38.60
80958;DHT22;70419;42.700;23.316;2023-08-12T07:31:31;24.30;37.70
80958;DHT22;70419;42.700;23.316;2023-08-12T07:33:57;24.50;37.20
80958;DHT22;70419;42.700;23.316;2023-08-12T07:36:22;25.00;36.70
80958;DHT22;70419;42.700;23.316;2023-08-12T07:38:49;26.10;35.20
80958;DHT22;70419;42.700;23.316;2023-08-12T07:41:14;27.80;32.40
80958;DHT22;70419;42.700;23.316;2023-08-12T07:43:40;29.90;29.10
80958;DHT22;70419;42.700;23.316;2023-08-12T07:46:06;31.80;27.30
80958;DHT22;70419;42.700;23.316;2023-08-12T07:48:31;33.50;25.40
80958;DHT22;70419;42.700;23.316;2023-08-12T07:50:57;35.20;24.00
80958;DHT22;70419;42.700;23.316;2023-08-12T07:53:23;36.70;22.30
80958;DHT22;70419;42.700;23.316;2023-08-12T07:55:49;38.10;20.80
80958;DHT22;70419;42.700;23.316;2023-08-12T07:58:14;39.30;20.00
80958;DHT22;70419;42.700;23.316;2023-08-12T08:00:40;40.40;18.80
80958;DHT22;70419;42.700;23.316;2023-08-12T08:03:06;41.10;18.00
80958;DHT22;70419;42.700;23.316;2023-08-12T08:05:31;41.90;17.50
80958;DHT22;70419;42.700;23.316;2023-08-12T08:07:57;42.60;16.70
80958;DHT22;70419;42.700;23.316;2023-08-12T08:10:23;43.10;16.60
80958;DHT22;70419;42.700;23.316;2023-08-12T08:12:49;42.70;16.50
80958;DHT22;70419;42.700;23.316;2023-08-12T08:15:14;43.00;16.20
80958;DHT22;70419;42.700;23.316;2023-08-12T08:17:40;43.50;16.10
80958;DHT22;70419;42.700;23.316;2023-08-12T08:20:06;43.90;15.70
80958;DHT22;70419;42.700;23.316;2023-08-12T08:22:32;43.60;15.30
80958;DHT22;70419;42.700;23.316;2023-08-12T08:24:57;43.60;15.40
80958;DHT22;70419;42.700;23.316;2023-08-12T08:27:23;44.50;15.40
80958;DHT22;70419;42.700;23.316;2023-08-12T08:29:49;45.30;14.40
80958;DHT22;70419;42.700;23.316;2023-08-12T08:32:14;45.70;14.20
80958;DHT22;70419;42.700;23.316;2023-08-12T08:34:40;46.10;14.00
80958;DHT22;70419;42.700;23.316;2023-08-12T08:37:05;46.70;13.60
80958;DHT22;70419;42.700;23.316;2023-08-12T08:39:31;47.30;13.20
80958;DHT22;70419;42.700;23.316;2023-08-12T08:41:57;47.50;13.20
80958;DHT22;70419;42.700;23.316;2023-08-12T08:44:23;47.50;13.00
80958;DHT22;70419;42.700;23.316;2023-08-12T08:46:53;47.50;13.10
80958;DHT22;70419;42.700;23.316;2023-08-12T08:49:19;47.40;12.90
80958;DHT22;70419;42.700;23.316;2023-08-12T08:51:46;47.70;12.70
80958;DHT22;70419;42.700;23.316;2023-08-12T08:54:12;47.50;12.90
80958;DHT22;70419;42.700;23.316;2023-08-12T08:56:38;47.60;12.70
80958;DHT22;70419;42.700;23.316;2023-08-12T08:59:04;47.70;12.70
80958;DHT22;70419;42.700;23.316;2023-08-12T09:01:29;47.80;12.60
80958;DHT22;70419;42.700;23.316;2023-08-12T09:03:57;47.90;12.50
80958;DHT22;70419;42.700;23.316;2023-08-12T09:06:26;47.80;12.60
80958;DHT22;70419;42.700;23.316;2023-08-12T09:08:55;48.40;12.40
80958;DHT22;70419;42.700;23.316;2023-08-12T09:11:21;49.60;11.90
80958;DHT22;70419;42.700;23.316;2023-08-12T09:13:46;50.50;11.50
80958;DHT22;70419;42.700;23.316;2023-08-12T09:16:12;51.30;11.10
80958;DHT22;70419;42.700;23.316;2023-08-12T09:18:39;51.70;10.60
80958;DHT22;70419;42.700;23.316;2023-08-12T09:21:05;51.30;10.70
80958;DHT22;70419;42.700;23.316;2023-08-12T09:23:35;51.70;10.60
80958;DHT22;70419;42.700;23.316;2023-08-12T09:26:01;52.20;10.60
80958;DHT22;70419;42.700;23.316;2023-08-12T09:28:26;52.70;10.50
80958;DHT22;70419;42.700;23.316;2023-08-12T09:30:52;53.40;10.00
80958;DHT22;70419;42.700;23.316;2023-08-12T09:33:18;54.20;9.70
80958;DHT22;70419;42.700;23.316;2023-08-12T09:35:49;54.60;9.40
80958;DHT22;70419;42.700;23.316;2023-08-12T09:38:14;55.00;9.10
80958;DHT22;70419;42.700;23.316;2023-08-12T09:40:40;55.20;9.10
80958;DHT22;70419;42.700;23.316;2023-08-12T09:43:06;55.70;8.90
80958;DHT22;70419;42.700;23.316;2023-08-12T09:45:32;55.20;8.70
80958;DHT22;70419;42.700;23.316;2023-08-12T09:47:58;55.40;8.80
80958;DHT22;70419;42.700;23.316;2023-08-12T09:50:27;55.80;8.70
80958;DHT22;70419;42.700;23.316;2023-08-12T09:52:53;56.20;8.60
80958;DHT22;70419;42.700;23.316;2023-08-12T09:55:20;56.60;8.30
80958;DHT22;70419;42.700;23.316;2023-08-12T09:57:47;57.40;8.20
80958;DHT22;70419;42.700;23.316;2023-08-12T10:00:13;57.90;8.00
80958;DHT22;70419;42.700;23.316;2023-08-12T10:02:45;58.00;7.70
80958;DHT22;70419;42.700;23.316;2023-08-12T10:05:12;58.10;7.70
80958;DHT22;70419;42.700;23.316;2023-08-12T10:07:39;58.20;7.70
80958;DHT22;70419;42.700;23.316;2023-08-12T10:10:05;58.30;7.60
80958;DHT22;70419;42.700;23.316;2023-08-12T10:12:32;58.50;7.60
80958;DHT22;70419;42.700;23.316;2023-08-12T10:14:58;58.40;7.30
80958;DHT22;70419;42.700;23.316;2023-08-12T10:17:25;57.80;7.60
80958;DHT22;70419;42.700;23.316;2023-08-12T10:19:54;57.80;7.60
80958;DHT22;70419;42.700;23.316;2023-08-12T10:22:20;58.20;7.60
80958;DHT22;70419;42.700;23.316;2023-08-12T10:24:46;58.50;7.40
80958;DHT22;70419;42.700;23.316;2023-08-12T10:27:12;58.90;7.30
80958;DHT22;70419;42.700;23.316;2023-08-12T10:29:39;59.10;7.00
80958;DHT22;70419;42.700;23.316;2023-08-12T10:32:07;59.60;6.90
80958;DHT22;70419;42.700;23.316;2023-08-12T10:34:33;59.90;6.80
80958;DHT22;70419;42.700;23.316;2023-08-12T10:37:00;59.90;6.50
80958;DHT22;70419;42.700;23.316;2023-08-12T10:39:26;59.90;6.70
80958;DHT22;70419;42.700;23.316;2023-08-12T10:41:54;59.90;6.60
80958;DHT22;70419;42.700;23.316;2023-08-12T10:44:20;59.90;6.70
80958;DHT22;70419;42.700;23.316;2023-08-12T10:46:52;59.80;6.70
80958;DHT22;70419;42.700;23.316;2023-08-12T10:49:21;59.90;6.70
80958;DHT22;70419;42.700;23.316;2023-08-12T10:51:53;60.00;6.70
80958;DHT22;70419;42.700;23.316;2023-08-12T10:54:26;60.00;6.50
80958;DHT22;70419;42.700;23.316;2023-08-12T10:57:12;60.30;6.50
80958;DHT22;70419;42.700;23.316;2023-08-12T11:04:42;60.80;6.10
80958;DHT22;70419;42.700;23.316;2023-08-12T11:07:14;61.30;6.20
80958;DHT22;70419;42.700;23.316;2023-08-12T11:09:40;61.10;6.10
80958;DHT22;70419;42.700;23.316;2023-08-12T11:12:06;60.90;6.20
80958;DHT22;70419;42.700;23.316;2023-08-12T11:14:33;60.90;6.20
80958;DHT22;70419;42.700;23.316;2023-08-12T11:17:13;60.60;5.90
80958;DHT22;70419;42.700;23.316;2023-08-12T11:19:40;60.00;5.90
80958;DHT22;70419;42.700;23.316;2023-08-12T11:22:06;60.10;5.60
80958;DHT22;70419;42.700;23.316;2023-08-12T11:24:32;60.20;5.40
80958;DHT22;70419;42.700;23.316;2023-08-12T11:26:59;60.50;5.50
80958;DHT22;70419;42.700;23.316;2023-08-12T11:29:25;60.90;5.40
80958;DHT22;70419;42.700;23.316;2023-08-12T11:31:50;61.40;5.30
80958;DHT22;70419;42.700;23.316;2023-08-12T11:34:16;61.60;5.10
80958;DHT22;70419;42.700;23.316;2023-08-12T11:36:42;61.90;5.20
80958;DHT22;70419;42.700;23.316;2023-08-12T11:39:07;61.70;5.20
80958;DHT22;70419;42.700;23.316;2023-08-12T11:41:33;61.70;4.80
80958;DHT22;70419;42.700;23.316;2023-08-12T11:44:00;61.30;5.10
80958;DHT22;70419;42.700;23.316;2023-08-12T11:46:25;60.80;5.40
80958;DHT22;70419;42.700;23.316;2023-08-12T11:48:52;60.60;5.30
80958;DHT22;70419;42.700;23.316;2023-08-12T11:51:17;60.90;5.40
80958;DHT22;70419;42.700;23.316;2023-08-12T11:53:43;61.40;5.30
80958;DHT22;70419;42.700;23.316;2023-08-12T11:56:09;61.30;5.10
80958;DHT22;70419;42.700;23.316;2023-08-12T11:58:38;59.00;5.70
80958;DHT22;70419;42.700;23.316;2023-08-12T12:01:03;58.70;6.00
80958;DHT22;70419;42.700;23.316;2023-08-12T12:03:29;59.30;6.20
80958;DHT22;70419;42.700;23.316;2023-08-12T12:05:55;59.50;6.00
80958;DHT22;70419;42.700;23.316;2023-08-12T12:08:21;58.30;6.50
80958;DHT22;70419;42.700;23.316;2023-08-12T12:10:48;56.50;7.10
80958;DHT22;70419;42.700;23.316;2023-08-12T12:13:15;55.10;7.60
80958;DHT22;70419;42.700;23.316;2023-08-12T12:15:41;53.20;8.20
80958;DHT22;70419;42.700;23.316;2023-08-12T12:18:11;51.10;9.00
80958;DHT22;70419;42.700;23.316;2023-08-12T12:20:39;48.60;9.90
80958;DHT22;70419;42.700;23.316;2023-08-12T12:23:07;47.00;10.70
80958;DHT22;70419;42.700;23.316;2023-08-12T12:25:32;45.20;11.50
80958;DHT22;70419;42.700;23.316;2023-08-12T12:27:58;44.20;11.90
80958;DHT22;70419;42.700;23.316;2023-08-12T12:30:23;44.20;12.00
80958;DHT22;70419;42.700;23.316;2023-08-12T12:32:49;45.40;11.50
80958;DHT22;70419;42.700;23.316;2023-08-12T12:35:14;47.90;10.60
80958;DHT22;70419;42.700;23.316;2023-08-12T12:37:41;49.90;9.90
80958;DHT22;70419;42.700;23.316;2023-08-12T12:40:08;52.00;8.90
80958;DHT22;70419;42.700;23.316;2023-08-12T12:42:35;53.90;8.40
80958;DHT22;70419;42.700;23.316;2023-08-12T12:45:00;54.60;8.10
80958;DHT22;70419;42.700;23.316;2023-08-12T12:47:26;53.10;8.40
80958;DHT22;70419;42.700;23.316;2023-08-12T12:49:52;51.00;9.30
80958;DHT22;70419;42.700;23.316;2023-08-12T12:52:17;48.80;10.20
80958;DHT22;70419;42.700;23.316;2023-08-12T12:54:43;46.70;11.00
80958;DHT22;70419;42.700;23.316;2023-08-12T12:57:08;45.10;11.60
80958;DHT22;70419;42.700;23.316;2023-08-12T12:59:34;43.70;12.30
80958;DHT22;70419;42.700;23.316;2023-08-12T13:02:00;42.60;13.10
80958;DHT22;70419;42.700;23.316;2023-08-12T13:04:25;41.60;13.90
80958;DHT22;70419;42.700;23.316;2023-08-12T13:06:51;40.80;14.30
80958;DHT22;70419;42.700;23.316;2023-08-12T13:09:18;40.40;14.70
80958;DHT22;70419;42.700;23.316;2023-08-12T13:11:43;40.60;14.70
80958;DHT22;70419;42.700;23.316;2023-08-12T13:14:09;41.00;14.50
80958;DHT22;70419;42.700;23.316;2023-08-12T13:16:35;42.70;13.60
80958;DHT22;70419;42.700;23.316;2023-08-12T13:19:00;44.80;12.30
80958;DHT22;70419;42.700;23.316;2023-08-12T13:21:26;47.10;11.40
80958;DHT22;70419;42.700;23.316;2023-08-12T13:23:53;49.20;10.10
80958;DHT22;70419;42.700;23.316;2023-08-12T13:26:20;51.00;9.50
80958;DHT22;70419;42.700;23.316;2023-08-12T13:28:46;51.50;9.00
80958;DHT22;70419;42.700;23.316;2023-08-12T13:31:12;52.60;8.70
80958;DHT22;70419;42.700;23.316;2023-08-12T13:33:37;53.40;8.40
80958;DHT22;70419;42.700;23.316;2023-08-12T13:36:03;54.40;7.90
80958;DHT22;70419;42.700;23.316;2023-08-12T13:38:29;55.10;7.60
80958;DHT22;70419;42.700;23.316;2023-08-12T13:40:55;55.60;7.30
80958;DHT22;70419;42.700;23.316;2023-08-12T13:43:20;56.00;7.30
80958;DHT22;70419;42.700;23.316;2023-08-12T13:45:47;55.60;7.40
80958;DHT22;70419;42.700;23.316;2023-08-12T13:48:13;53.90;7.80
80958;DHT22;70419;42.700;23.316;2023-08-12T13:50:38;51.30;8.80
80958;DHT22;70419;42.700;23.316;2023-08-12T13:53:04;49.10;9.70
80958;DHT22;70419;42.700;23.316;2023-08-12T13:55:29;47.00;10.40
80958;DHT22;70419;42.700;23.316;2023-08-12T13:57:55;45.10;11.70
80958;DHT22;70419;42.700;23.316;2023-08-12T14:00:20;43.40;13.20
80958;DHT22;70419;42.700;23.316;2023-08-12T14:02:47;41.90;13.50
80958;DHT22;70419;42.700;23.316;2023-08-12T14:05:14;40.60;14.30
80958;DHT22;70419;42.700;23.316;2023-08-12T14:07:40;39.60;14.90
80958;DHT22;70419;42.700;23.316;2023-08-12T14:10:06;38.50;15.40
80958;DHT22;70419;42.700;23.316;2023-08-12T14:12:32;37.70;16.00
80958;DHT22;70419;42.700;23.316;2023-08-12T14:14:58;36.70;16.50
80958;DHT22;70419;42.700;23.316;2023-08-12T14:17:23;36.10;17.00
80958;DHT22;70419;42.700;23.316;2023-08-12T14:19:52;35.60;17.80
80958;DHT22;70419;42.700;23.316;2023-08-12T14:22:18;35.10;18.00
80958;DHT22;70419;42.700;23.316;2023-08-12T14:24:44;34.70;18.20
80958;DHT22;70419;42.700;23.316;2023-08-12T14:27:10;34.30;18.60
80958;DHT22;70419;42.700;23.316;2023-08-12T14:29:36;34.00;18.90
80958;DHT22;70419;42.700;23.316;2023-08-12T14:32:02;33.70;19.20
80958;DHT22;70419;42.700;23.316;2023-08-12T14:34:27;33.50;19.40
80958;DHT22;70419;42.700;23.316;2023-08-12T14:36:53;33.30;19.80
80958;DHT22;70419;42.700;23.316;2023-08-12T14:39:19;33.10;19.90
80958;DHT22;70419;42.700;23.316;2023-08-12T14:41:49;32.90;20.20
80958;DHT22;70419;42.700;23.316;2023-08-12T14:44:15;32.90;20.00
80958;DHT22;70419;42.700;23.316;2023-08-12T14:46:41;32.80;20.20
80958;DHT22;70419;42.700;23.316;2023-08-12T14:49:06;32.60;20.50
80958;DHT22;70419;42.700;23.316;2023-08-12T14:51:32;32.60;20.60
80958;DHT22;70419;42.700;23.316;2023-08-12T14:53:58;32.50;20.80
80958;DHT22;70419;42.700;23.316;2023-08-12T14:56:23;32.50;20.70
80958;DHT22;70419;42.700;23.316;2023-08-12T14:58:49;32.50;21.00
80958;DHT22;70419;42.700;23.316;2023-08-12T15:01:14;32.50;21.10
80958;DHT22;70419;42.700;23.316;2023-08-12T15:03:50;32.50;21.00
80958;DHT22;70419;42.700;23.316;2023-08-12T15:06:16;32.40;21.00
80958;DHT22;70419;42.700;23.316;2023-08-12T15:08:42;32.30;21.10
80958;DHT22;70419;42.700;23.316;2023-08-12T15:11:07;32.20;21.30
80958;DHT22;70419;42.700;23.316;2023-08-12T15:13:33;32.00;21.40
80958;DHT22;70419;42.700;23.316;2023-08-12T15:16:17;32.00;21.70
80958;DHT22;70419;42.700;23.316;2023-08-12T15:18:42;32.20;21.80